Afonsos, Brazil

4:43 AM BRT on August 20, 2014 (GMT -0300)
Todos os Santos | Change Station
CLOSE
Current Station
Personal Weather Station
Location: Rio de Janeiro, Rio de Janeiro
Elevation: 98 ft
Nearby Weather Stations

Elev 98 ft 22.89 °S, 43.28 °W | Updated 20 seconds ago

Clear
Clear
67.5 °F
Feels Like 67.5 °F
N
0.0
Wind Variable Wind from North
Gusts 0.7 mph

Today
High -- | Low -- °F
--% Chance of Precip.
Yesterday
High -- | Low -- °F
Precip. -- in
6:14 AM 5:39 PM
Waning Crescent, 23% visible
Pressure 30.15 in
Visibility -9999.0 miles
Clouds
Dew Point 65 °F
Humidity 92%
Rainfall 0.00 in
Snow Depth Not available.
UV Not available.
Pollen Not available.
Air Quality Not available.
Flu Activity Not available.
METAR SBAF 200700Z 29004KT CAVOK 16/14 Q1021

More Conditions Fewer Conditions

Pressure 30.15 in
Visibility -9999.0 miles
Clouds
Dew Point 65 °F
Humidity 92%
Rainfall 0.00 in
Snow Depth Not available.
UV Not available.
Pollen Not available.
Air Quality Not available.
Flu Activity Not available.
METAR SBAF 200700Z 29004KT CAVOK 16/14 Q1021

More Conditions Fewer Conditions

10-Day Weather Forecast

Almanac

Astronomy

Aug. 20, 2014 Rise Set
Actual Time 6:14 AM BRT 5:39 PM BRT
Civil Twilight 5:51 AM BRT 6:02 PM BRT
Nautical Twilight 5:25 AM BRT 6:28 PM BRT
Astronomical Twilight 4:58 AM BRT 6:55 PM BRT
Moon 2:25 AM BRT 1:41 PM BRT
Length of Visible Light 12h 10m
Length of Day
11h 25m
Tomorrow will be 1m 9s longer.
Waning Crescent, 23% of the Moon is Illuminated
Today
Waning Crescent
Aug 25
New
Sep 2
First Quarter
Sep 8
Full
Sep 15
Last Quarter

Yesterday's Extremes

Country Highs Country Lows

Community

WunderPhotos

Upload Photos

1,745,592 photos uploaded!

Nearby

Snow Depth

Not available.

Earthquake Activity

City Distance Mag. Time & Date
No recent earthquake activity has been reported nearby.
Minimum magnitude displayed is 2.5.

Coastal Water Temperatures

Place Temperature
No Stations Reporting

Nearby Weather Stations